sensor_id;sensor_type;location;lat;lon;timestamp;P1;durP1;ratioP1;P2;durP2;ratioP2
57199;SDS011;43061;43.902;22.266;2022-09-09T00:03:51;15.90;;;9.05;;
57199;SDS011;43061;43.902;22.266;2022-09-09T00:06:22;12.73;;;8.57;;
57199;SDS011;43061;43.902;22.266;2022-09-09T00:11:30;13.30;;;7.97;;
57199;SDS011;43061;43.902;22.266;2022-09-09T00:14:02;14.60;;;8.70;;
57199;SDS011;43061;43.902;22.266;2022-09-09T00:16:35;11.48;;;8.32;;
57199;SDS011;43061;43.902;22.266;2022-09-09T00:21:39;12.65;;;8.85;;
57199;SDS011;43061;43.902;22.266;2022-09-09T00:24:11;14.90;;;8.50;;
57199;SDS011;43061;43.902;22.266;2022-09-09T00:26:45;19.83;;;9.23;;
57199;SDS011;43061;43.902;22.266;2022-09-09T00:32:00;14.02;;;9.50;;
57199;SDS011;43061;43.902;22.266;2022-09-09T00:34:28;11.82;;;8.18;;
57199;SDS011;43061;43.902;22.266;2022-09-09T00:36:55;14.98;;;9.07;;
57199;SDS011;43061;43.902;22.266;2022-09-09T00:44:31;13.75;;;8.38;;
57199;SDS011;43061;43.902;22.266;2022-09-09T00:59:48;15.23;;;8.63;;
57199;SDS011;43061;43.902;22.266;2022-09-09T01:02:21;13.23;;;8.52;;
57199;SDS011;43061;43.902;22.266;2022-09-09T01:04:53;14.05;;;8.60;;
57199;SDS011;43061;43.902;22.266;2022-09-09T01:07:20;12.10;;;8.45;;
57199;SDS011;43061;43.902;22.266;2022-09-09T01:09:56;12.57;;;8.90;;
57199;SDS011;43061;43.902;22.266;2022-09-09T01:14:50;13.63;;;9.15;;
57199;SDS011;43061;43.902;22.266;2022-09-09T01:17:25;14.48;;;8.88;;
57199;SDS011;43061;43.902;22.266;2022-09-09T01:27:43;13.93;;;8.60;;
57199;SDS011;43061;43.902;22.266;2022-09-09T01:30:10;13.23;;;8.65;;
57199;SDS011;43061;43.902;22.266;2022-09-09T01:35:27;18.23;;;9.88;;
57199;SDS011;43061;43.902;22.266;2022-09-09T01:37:55;13.10;;;9.27;;
57199;SDS011;43061;43.902;22.266;2022-09-09T01:40:21;12.98;;;8.50;;
57199;SDS011;43061;43.902;22.266;2022-09-09T01:42:48;15.18;;;8.98;;
57199;SDS011;43061;43.902;22.266;2022-09-09T01:45:14;13.43;;;8.80;;
57199;SDS011;43061;43.902;22.266;2022-09-09T01:47:40;13.05;;;9.02;;
57199;SDS011;43061;43.902;22.266;2022-09-09T01:50:07;11.63;;;8.88;;
57199;SDS011;43061;43.902;22.266;2022-09-09T01:52:34;15.00;;;9.00;;
57199;SDS011;43061;43.902;22.266;2022-09-09T01:55:01;13.07;;;8.70;;
57199;SDS011;43061;43.902;22.266;2022-09-09T01:57:30;15.85;;;9.15;;
57199;SDS011;43061;43.902;22.266;2022-09-09T02:00:04;12.43;;;8.77;;
57199;SDS011;43061;43.902;22.266;2022-09-09T02:08:00;12.43;;;8.50;;
57199;SDS011;43061;43.902;22.266;2022-09-09T02:10:30;13.85;;;8.80;;
57199;SDS011;43061;43.902;22.266;2022-09-09T02:13:04;13.02;;;9.25;;
57199;SDS011;43061;43.902;22.266;2022-09-09T02:15:35;12.85;;;9.55;;
57199;SDS011;43061;43.902;22.266;2022-09-09T02:18:06;15.00;;;9.15;;
57199;SDS011;43061;43.902;22.266;2022-09-09T02:20:34;12.98;;;9.27;;
57199;SDS011;43061;43.902;22.266;2022-09-09T02:23:02;15.10;;;9.18;;
57199;SDS011;43061;43.902;22.266;2022-09-09T02:25:29;13.98;;;9.32;;
57199;SDS011;43061;43.902;22.266;2022-09-09T02:27:55;14.02;;;8.93;;
57199;SDS011;43061;43.902;22.266;2022-09-09T02:30:25;13.27;;;8.73;;
57199;SDS011;43061;43.902;22.266;2022-09-09T02:32:54;14.18;;;8.93;;
57199;SDS011;43061;43.902;22.266;2022-09-09T02:35:22;17.45;;;9.30;;
57199;SDS011;43061;43.902;22.266;2022-09-09T02:37:49;14.05;;;9.50;;
57199;SDS011;43061;43.902;22.266;2022-09-09T02:40:16;15.57;;;9.07;;
57199;SDS011;43061;43.902;22.266;2022-09-09T02:42:43;15.65;;;8.73;;
57199;SDS011;43061;43.902;22.266;2022-09-09T02:45:10;15.02;;;9.00;;
57199;SDS011;43061;43.902;22.266;2022-09-09T02:47:47;14.60;;;9.75;;
57199;SDS011;43061;43.902;22.266;2022-09-09T02:50:23;12.45;;;9.45;;
57199;SDS011;43061;43.902;22.266;2022-09-09T02:55:41;14.40;;;9.07;;
57199;SDS011;43061;43.902;22.266;2022-09-09T02:58:06;15.15;;;9.43;;
57199;SDS011;43061;43.902;22.266;2022-09-09T03:00:33;14.55;;;9.70;;
57199;SDS011;43061;43.902;22.266;2022-09-09T03:03:01;13.43;;;9.02;;
57199;SDS011;43061;43.902;22.266;2022-09-09T03:05:27;16.70;;;9.77;;
57199;SDS011;43061;43.902;22.266;2022-09-09T03:07:54;13.00;;;9.38;;
57199;SDS011;43061;43.902;22.266;2022-09-09T03:10:20;14.93;;;9.52;;
57199;SDS011;43061;43.902;22.266;2022-09-09T03:12:46;16.10;;;9.05;;
57199;SDS011;43061;43.902;22.266;2022-09-09T03:15:12;13.32;;;9.68;;
57199;SDS011;43061;43.902;22.266;2022-09-09T03:17:39;13.60;;;9.18;;
57199;SDS011;43061;43.902;22.266;2022-09-09T03:20:06;13.90;;;9.23;;
57199;SDS011;43061;43.902;22.266;2022-09-09T03:22:33;15.20;;;9.52;;
57199;SDS011;43061;43.902;22.266;2022-09-09T03:24:59;12.38;;;9.52;;
57199;SDS011;43061;43.902;22.266;2022-09-09T03:27:25;16.42;;;9.00;;
57199;SDS011;43061;43.902;22.266;2022-09-09T03:29:51;13.82;;;9.20;;
57199;SDS011;43061;43.902;22.266;2022-09-09T03:32:17;18.52;;;9.82;;
57199;SDS011;43061;43.902;22.266;2022-09-09T03:34:44;14.02;;;9.43;;
57199;SDS011;43061;43.902;22.266;2022-09-09T03:37:12;13.68;;;10.02;;
57199;SDS011;43061;43.902;22.266;2022-09-09T03:39:38;14.13;;;10.30;;
57199;SDS011;43061;43.902;22.266;2022-09-09T03:42:04;13.00;;;9.15;;
57199;SDS011;43061;43.902;22.266;2022-09-09T03:44:30;15.32;;;9.13;;
57199;SDS011;43061;43.902;22.266;2022-09-09T03:46:56;15.13;;;9.32;;
57199;SDS011;43061;43.902;22.266;2022-09-09T03:49:25;16.20;;;9.20;;
57199;SDS011;43061;43.902;22.266;2022-09-09T03:51:54;15.00;;;9.20;;
57199;SDS011;43061;43.902;22.266;2022-09-09T03:54:20;13.25;;;9.18;;
57199;SDS011;43061;43.902;22.266;2022-09-09T03:56:46;12.68;;;8.70;;
57199;SDS011;43061;43.902;22.266;2022-09-09T03:59:12;14.07;;;9.30;;
57199;SDS011;43061;43.902;22.266;2022-09-09T04:01:39;14.10;;;9.50;;
57199;SDS011;43061;43.902;22.266;2022-09-09T04:04:05;16.48;;;9.82;;
57199;SDS011;43061;43.902;22.266;2022-09-09T04:06:31;14.52;;;9.23;;
57199;SDS011;43061;43.902;22.266;2022-09-09T04:08:57;12.02;;;8.82;;
57199;SDS011;43061;43.902;22.266;2022-09-09T04:11:23;14.25;;;9.85;;
57199;SDS011;43061;43.902;22.266;2022-09-09T04:13:49;15.65;;;9.00;;
57199;SDS011;43061;43.902;22.266;2022-09-09T04:16:15;16.33;;;9.77;;
57199;SDS011;43061;43.902;22.266;2022-09-09T04:18:41;15.75;;;9.70;;
57199;SDS011;43061;43.902;22.266;2022-09-09T04:21:08;14.13;;;9.10;;
57199;SDS011;43061;43.902;22.266;2022-09-09T04:23:35;15.07;;;8.57;;
57199;SDS011;43061;43.902;22.266;2022-09-09T04:26:01;13.63;;;8.50;;
57199;SDS011;43061;43.902;22.266;2022-09-09T04:28:31;16.67;;;9.52;;
57199;SDS011;43061;43.902;22.266;2022-09-09T04:31:03;12.00;;;8.88;;
57199;SDS011;43061;43.902;22.266;2022-09-09T04:33:29;11.60;;;8.88;;
57199;SDS011;43061;43.902;22.266;2022-09-09T04:35:56;15.68;;;8.85;;
57199;SDS011;43061;43.902;22.266;2022-09-09T04:38:22;14.82;;;9.00;;
57199;SDS011;43061;43.902;22.266;2022-09-09T04:40:49;13.30;;;9.52;;
57199;SDS011;43061;43.902;22.266;2022-09-09T04:43:16;16.25;;;9.38;;
57199;SDS011;43061;43.902;22.266;2022-09-09T04:45:44;16.10;;;9.27;;
57199;SDS011;43061;43.902;22.266;2022-09-09T04:48:12;17.08;;;9.38;;
57199;SDS011;43061;43.902;22.266;2022-09-09T04:50:38;16.05;;;9.93;;
57199;SDS011;43061;43.902;22.266;2022-09-09T04:53:05;15.88;;;9.70;;
57199;SDS011;43061;43.902;22.266;2022-09-09T04:55:31;19.45;;;10.05;;
57199;SDS011;43061;43.902;22.266;2022-09-09T04:58:02;16.52;;;9.75;;
57199;SDS011;43061;43.902;22.266;2022-09-09T05:00:28;17.52;;;9.48;;
57199;SDS011;43061;43.902;22.266;2022-09-09T05:02:55;17.83;;;9.73;;
57199;SDS011;43061;43.902;22.266;2022-09-09T05:05:21;13.75;;;9.98;;
57199;SDS011;43061;43.902;22.266;2022-09-09T05:07:47;16.80;;;9.85;;
57199;SDS011;43061;43.902;22.266;2022-09-09T05:10:14;13.55;;;9.70;;
57199;SDS011;43061;43.902;22.266;2022-09-09T05:12:41;16.58;;;10.23;;
57199;SDS011;43061;43.902;22.266;2022-09-09T05:15:07;18.80;;;10.18;;
57199;SDS011;43061;43.902;22.266;2022-09-09T05:17:34;17.33;;;9.80;;
57199;SDS011;43061;43.902;22.266;2022-09-09T05:20:01;17.35;;;10.52;;
57199;SDS011;43061;43.902;22.266;2022-09-09T05:22:28;22.30;;;11.00;;
57199;SDS011;43061;43.902;22.266;2022-09-09T05:24:55;17.60;;;11.20;;
57199;SDS011;43061;43.902;22.266;2022-09-09T05:27:21;16.50;;;9.90;;
57199;SDS011;43061;43.902;22.266;2022-09-09T05:29:47;16.58;;;10.32;;
57199;SDS011;43061;43.902;22.266;2022-09-09T05:32:13;16.73;;;10.68;;
57199;SDS011;43061;43.902;22.266;2022-09-09T05:34:42;22.08;;;10.63;;
57199;SDS011;43061;43.902;22.266;2022-09-09T05:37:08;13.10;;;9.75;;
57199;SDS011;43061;43.902;22.266;2022-09-09T05:39:35;19.00;;;10.10;;
57199;SDS011;43061;43.902;22.266;2022-09-09T05:42:02;20.02;;;11.07;;
57199;SDS011;43061;43.902;22.266;2022-09-09T05:44:29;19.50;;;11.27;;
57199;SDS011;43061;43.902;22.266;2022-09-09T05:46:55;17.42;;;11.02;;
57199;SDS011;43061;43.902;22.266;2022-09-09T05:49:22;18.50;;;10.65;;
57199;SDS011;43061;43.902;22.266;2022-09-09T05:51:48;15.85;;;9.88;;
57199;SDS011;43061;43.902;22.266;2022-09-09T05:54:15;18.23;;;9.90;;
57199;SDS011;43061;43.902;22.266;2022-09-09T05:56:43;15.82;;;10.63;;
57199;SDS011;43061;43.902;22.266;2022-09-09T05:59:09;23.98;;;10.32;;
57199;SDS011;43061;43.902;22.266;2022-09-09T06:01:36;18.02;;;9.98;;
57199;SDS011;43061;43.902;22.266;2022-09-09T06:04:06;19.25;;;10.02;;
57199;SDS011;43061;43.902;22.266;2022-09-09T06:06:36;20.88;;;10.60;;
57199;SDS011;43061;43.902;22.266;2022-09-09T06:09:04;15.40;;;10.00;;
57199;SDS011;43061;43.902;22.266;2022-09-09T06:11:35;19.67;;;10.98;;
57199;SDS011;43061;43.902;22.266;2022-09-09T06:14:02;21.23;;;10.40;;
57199;SDS011;43061;43.902;22.266;2022-09-09T06:16:28;19.42;;;10.57;;
57199;SDS011;43061;43.902;22.266;2022-09-09T06:18:55;16.55;;;10.43;;
57199;SDS011;43061;43.902;22.266;2022-09-09T06:21:22;20.15;;;11.27;;
57199;SDS011;43061;43.902;22.266;2022-09-09T06:23:49;16.85;;;10.40;;
57199;SDS011;43061;43.902;22.266;2022-09-09T06:26:17;17.85;;;9.95;;
57199;SDS011;43061;43.902;22.266;2022-09-09T06:28:47;16.13;;;9.80;;
57199;SDS011;43061;43.902;22.266;2022-09-09T06:31:15;15.88;;;9.85;;
57199;SDS011;43061;43.902;22.266;2022-09-09T06:33:51;14.80;;;9.48;;
57199;SDS011;43061;43.902;22.266;2022-09-09T06:36:21;18.40;;;10.32;;
57199;SDS011;43061;43.902;22.266;2022-09-09T06:38:48;15.63;;;9.60;;
57199;SDS011;43061;43.902;22.266;2022-09-09T06:41:15;13.60;;;9.65;;
57199;SDS011;43061;43.902;22.266;2022-09-09T06:43:41;12.32;;;9.52;;
57199;SDS011;43061;43.902;22.266;2022-09-09T06:48:36;35.95;;;21.92;;
57199;SDS011;43061;43.902;22.266;2022-09-09T06:51:09;36.58;;;23.30;;
57199;SDS011;43061;43.902;22.266;2022-09-09T06:53:36;31.05;;;18.98;;
57199;SDS011;43061;43.902;22.266;2022-09-09T06:58:48;28.80;;;15.98;;
57199;SDS011;43061;43.902;22.266;2022-09-09T07:01:15;24.08;;;14.45;;
57199;SDS011;43061;43.902;22.266;2022-09-09T07:03:42;22.80;;;13.90;;
57199;SDS011;43061;43.902;22.266;2022-09-09T07:06:08;21.70;;;14.35;;
57199;SDS011;43061;43.902;22.266;2022-09-09T07:08:39;17.75;;;13.43;;
57199;SDS011;43061;43.902;22.266;2022-09-09T07:11:07;23.08;;;13.60;;
57199;SDS011;43061;43.902;22.266;2022-09-09T07:13:34;21.98;;;13.75;;
57199;SDS011;43061;43.902;22.266;2022-09-09T07:16:04;21.55;;;12.10;;
57199;SDS011;43061;43.902;22.266;2022-09-09T07:18:31;16.67;;;11.65;;
57199;SDS011;43061;43.902;22.266;2022-09-09T07:20:58;19.92;;;11.30;;
57199;SDS011;43061;43.902;22.266;2022-09-09T07:23:24;19.88;;;11.60;;
57199;SDS011;43061;43.902;22.266;2022-09-09T07:25:51;16.10;;;10.63;;
57199;SDS011;43061;43.902;22.266;2022-09-09T07:28:18;23.13;;;11.77;;
57199;SDS011;43061;43.902;22.266;2022-09-09T07:30:52;18.25;;;12.23;;
57199;SDS011;43061;43.902;22.266;2022-09-09T07:33:18;18.73;;;10.90;;
57199;SDS011;43061;43.902;22.266;2022-09-09T07:35:45;16.08;;;11.02;;
57199;SDS011;43061;43.902;22.266;2022-09-09T07:38:11;20.95;;;11.43;;
57199;SDS011;43061;43.902;22.266;2022-09-09T07:40:37;18.42;;;10.90;;
57199;SDS011;43061;43.902;22.266;2022-09-09T07:43:04;16.08;;;11.50;;
57199;SDS011;43061;43.902;22.266;2022-09-09T07:45:30;16.33;;;12.02;;
57199;SDS011;43061;43.902;22.266;2022-09-09T07:47:57;21.17;;;11.80;;
57199;SDS011;43061;43.902;22.266;2022-09-09T07:50:23;19.17;;;12.90;;
57199;SDS011;43061;43.902;22.266;2022-09-09T07:52:53;25.30;;;12.25;;
57199;SDS011;43061;43.902;22.266;2022-09-09T07:55:20;18.00;;;11.48;;
57199;SDS011;43061;43.902;22.266;2022-09-09T07:57:46;18.23;;;11.15;;
57199;SDS011;43061;43.902;22.266;2022-09-09T08:00:12;20.02;;;11.52;;
57199;SDS011;43061;43.902;22.266;2022-09-09T08:02:40;18.05;;;12.13;;
57199;SDS011;43061;43.902;22.266;2022-09-09T08:05:06;17.13;;;11.02;;
57199;SDS011;43061;43.902;22.266;2022-09-09T08:07:32;18.70;;;11.25;;
57199;SDS011;43061;43.902;22.266;2022-09-09T08:09:58;16.85;;;10.45;;
57199;SDS011;43061;43.902;22.266;2022-09-09T08:12:24;15.60;;;10.50;;
57199;SDS011;43061;43.902;22.266;2022-09-09T08:14:51;17.40;;;10.10;;
57199;SDS011;43061;43.902;22.266;2022-09-09T08:17:17;19.13;;;10.10;;
57199;SDS011;43061;43.902;22.266;2022-09-09T08:19:43;18.88;;;10.30;;
57199;SDS011;43061;43.902;22.266;2022-09-09T08:22:10;16.65;;;9.60;;
57199;SDS011;43061;43.902;22.266;2022-09-09T08:24:36;20.33;;;10.32;;
57199;SDS011;43061;43.902;22.266;2022-09-09T08:27:02;22.30;;;10.32;;
57199;SDS011;43061;43.902;22.266;2022-09-09T08:29:28;14.23;;;9.82;;
57199;SDS011;43061;43.902;22.266;2022-09-09T08:31:55;13.77;;;9.45;;
57199;SDS011;43061;43.902;22.266;2022-09-09T08:34:22;16.50;;;9.70;;
57199;SDS011;43061;43.902;22.266;2022-09-09T08:36:49;17.15;;;8.85;;
57199;SDS011;43061;43.902;22.266;2022-09-09T08:39:16;14.77;;;8.70;;
57199;SDS011;43061;43.902;22.266;2022-09-09T08:41:57;14.90;;;8.80;;
57199;SDS011;43061;43.902;22.266;2022-09-09T08:44:37;17.90;;;9.07;;
57199;SDS011;43061;43.902;22.266;2022-09-09T08:49:57;22.02;;;10.63;;
57199;SDS011;43061;43.902;22.266;2022-09-09T08:54:52;23.30;;;10.55;;
57199;SDS011;43061;43.902;22.266;2022-09-09T08:57:21;21.40;;;10.60;;
57199;SDS011;43061;43.902;22.266;2022-09-09T08:59:52;17.50;;;9.95;;
57199;SDS011;43061;43.902;22.266;2022-09-09T09:02:21;18.55;;;10.25;;
57199;SDS011;43061;43.902;22.266;2022-09-09T09:12:44;17.38;;;10.02;;
57199;SDS011;43061;43.902;22.266;2022-09-09T09:15:25;17.75;;;9.27;;
57199;SDS011;43061;43.902;22.266;2022-09-09T09:17:51;18.77;;;10.18;;
57199;SDS011;43061;43.902;22.266;2022-09-09T09:20:18;15.73;;;9.60;;
57199;SDS011;43061;43.902;22.266;2022-09-09T09:22:52;17.90;;;10.48;;
57199;SDS011;43061;43.902;22.266;2022-09-09T09:25:26;16.67;;;10.50;;
57199;SDS011;43061;43.902;22.266;2022-09-09T09:30:43;16.08;;;10.25;;
57199;SDS011;43061;43.902;22.266;2022-09-09T09:33:28;18.00;;;10.55;;
57199;SDS011;43061;43.902;22.266;2022-09-09T09:35:56;18.85;;;10.00;;
57199;SDS011;43061;43.902;22.266;2022-09-09T09:38:25;15.93;;;10.65;;
57199;SDS011;43061;43.902;22.266;2022-09-09T09:40:56;18.88;;;9.30;;
57199;SDS011;43061;43.902;22.266;2022-09-09T09:45:55;19.63;;;9.82;;
57199;SDS011;43061;43.902;22.266;2022-09-09T09:48:25;19.02;;;10.43;;
57199;SDS011;43061;43.902;22.266;2022-09-09T09:50:55;21.38;;;10.68;;
57199;SDS011;43061;43.902;22.266;2022-09-09T09:53:32;19.88;;;10.45;;
57199;SDS011;43061;43.902;22.266;2022-09-09T09:56:00;18.45;;;10.57;;
57199;SDS011;43061;43.902;22.266;2022-09-09T09:58:27;17.60;;;10.43;;
57199;SDS011;43061;43.902;22.266;2022-09-09T10:00:57;15.05;;;10.23;;
57199;SDS011;43061;43.902;22.266;2022-09-09T10:03:25;16.17;;;10.40;;
57199;SDS011;43061;43.902;22.266;2022-09-09T10:05:52;19.70;;;10.38;;
57199;SDS011;43061;43.902;22.266;2022-09-09T10:08:19;21.55;;;10.68;;
57199;SDS011;43061;43.902;22.266;2022-09-09T10:10:51;20.63;;;10.85;;
57199;SDS011;43061;43.902;22.266;2022-09-09T10:16:13;17.88;;;11.50;;
57199;SDS011;43061;43.902;22.266;2022-09-09T10:18:59;18.33;;;11.82;;
57199;SDS011;43061;43.902;22.266;2022-09-09T10:26:29;23.33;;;11.57;;
57199;SDS011;43061;43.902;22.266;2022-09-09T10:29:04;13.77;;;7.93;;
57199;SDS011;43061;43.902;22.266;2022-09-09T10:34:27;15.70;;;8.23;;
57199;SDS011;43061;43.902;22.266;2022-09-09T10:36:46;14.85;;;7.70;;
57199;SDS011;43061;43.902;22.266;2022-09-09T10:41:55;10.63;;;6.80;;
57199;SDS011;43061;43.902;22.266;2022-09-09T10:47:57;18.63;;;9.68;;
57199;SDS011;43061;43.902;22.266;2022-09-09T10:55:21;10.07;;;5.60;;
57199;SDS011;43061;43.902;22.266;2022-09-09T10:57:51;10.98;;;5.80;;
57199;SDS011;43061;43.902;22.266;2022-09-09T11:00:30;10.88;;;5.45;;
57199;SDS011;43061;43.902;22.266;2022-09-09T11:03:02;12.57;;;6.68;;
57199;SDS011;43061;43.902;22.266;2022-09-09T11:05:31;11.68;;;6.38;;
57199;SDS011;43061;43.902;22.266;2022-09-09T11:08:06;12.05;;;5.15;;
57199;SDS011;43061;43.902;22.266;2022-09-09T11:10:40;9.00;;;4.75;;
57199;SDS011;43061;43.902;22.266;2022-09-09T11:13:11;8.93;;;5.63;;
57199;SDS011;43061;43.902;22.266;2022-09-09T11:15:50;9.05;;;4.97;;
57199;SDS011;43061;43.902;22.266;2022-09-09T11:18:19;12.20;;;6.68;;
57199;SDS011;43061;43.902;22.266;2022-09-09T11:20:47;12.07;;;5.72;;
57199;SDS011;43061;43.902;22.266;2022-09-09T11:23:17;19.33;;;9.00;;
57199;SDS011;43061;43.902;22.266;2022-09-09T11:25:55;9.07;;;3.75;;
57199;SDS011;43061;43.902;22.266;2022-09-09T11:33:27;11.07;;;4.22;;
57199;SDS011;43061;43.902;22.266;2022-09-09T11:38:25;10.43;;;3.70;;
57199;SDS011;43061;43.902;22.266;2022-09-09T11:41:10;12.15;;;3.80;;
57199;SDS011;43061;43.902;22.266;2022-09-09T11:43:48;9.82;;;3.67;;
57199;SDS011;43061;43.902;22.266;2022-09-09T11:46:17;7.78;;;3.72;;
57199;SDS011;43061;43.902;22.266;2022-09-09T11:48:45;11.40;;;3.88;;
57199;SDS011;43061;43.902;22.266;2022-09-09T11:53:57;7.85;;;3.60;;
57199;SDS011;43061;43.902;22.266;2022-09-09T11:56:34;7.38;;;3.17;;
57199;SDS011;43061;43.902;22.266;2022-09-09T11:59:27;11.27;;;4.70;;
57199;SDS011;43061;43.902;22.266;2022-09-09T12:04:39;11.43;;;4.55;;
57199;SDS011;43061;43.902;22.266;2022-09-09T12:14:38;9.50;;;3.42;;
57199;SDS011;43061;43.902;22.266;2022-09-09T12:17:09;12.65;;;6.78;;
57199;SDS011;43061;43.902;22.266;2022-09-09T12:19:35;7.70;;;3.33;;
57199;SDS011;43061;43.902;22.266;2022-09-09T12:22:04;7.50;;;3.25;;
57199;SDS011;43061;43.902;22.266;2022-09-09T12:24:36;8.88;;;3.20;;
57199;SDS011;43061;43.902;22.266;2022-09-09T12:27:11;8.27;;;3.35;;
57199;SDS011;43061;43.902;22.266;2022-09-09T12:32:13;9.68;;;3.85;;
57199;SDS011;43061;43.902;22.266;2022-09-09T12:34:51;7.53;;;2.80;;
57199;SDS011;43061;43.902;22.266;2022-09-09T12:37:21;7.13;;;2.90;;
57199;SDS011;43061;43.902;22.266;2022-09-09T12:39:57;8.63;;;2.70;;
57199;SDS011;43061;43.902;22.266;2022-09-09T12:42:24;10.27;;;2.80;;
57199;SDS011;43061;43.902;22.266;2022-09-09T12:44:51;12.18;;;3.25;;
57199;SDS011;43061;43.902;22.266;2022-09-09T12:47:17;9.10;;;3.25;;
57199;SDS011;43061;43.902;22.266;2022-09-09T12:49:44;22.08;;;3.42;;
57199;SDS011;43061;43.902;22.266;2022-09-09T12:52:17;10.38;;;3.20;;
57199;SDS011;43061;43.902;22.266;2022-09-09T12:54:46;8.07;;;3.00;;
57199;SDS011;43061;43.902;22.266;2022-09-09T12:57:13;14.15;;;3.55;;
57199;SDS011;43061;43.902;22.266;2022-09-09T12:59:40;10.32;;;3.20;;
57199;SDS011;43061;43.902;22.266;2022-09-09T13:02:20;11.05;;;3.20;;
57199;SDS011;43061;43.902;22.266;2022-09-09T13:04:47;8.55;;;3.33;;
57199;SDS011;43061;43.902;22.266;2022-09-09T13:07:15;10.23;;;3.67;;
57199;SDS011;43061;43.902;22.266;2022-09-09T13:09:42;7.90;;;3.22;;
57199;SDS011;43061;43.902;22.266;2022-09-09T13:12:18;10.63;;;5.10;;
57199;SDS011;43061;43.902;22.266;2022-09-09T13:14:46;12.63;;;4.07;;
57199;SDS011;43061;43.902;22.266;2022-09-09T13:17:23;10.70;;;3.72;;
57199;SDS011;43061;43.902;22.266;2022-09-09T13:19:50;11.82;;;3.20;;
57199;SDS011;43061;43.902;22.266;2022-09-09T13:27:35;10.35;;;3.20;;
57199;SDS011;43061;43.902;22.266;2022-09-09T13:30:23;10.65;;;3.00;;
57199;SDS011;43061;43.902;22.266;2022-09-09T13:32:59;10.77;;;3.40;;
57199;SDS011;43061;43.902;22.266;2022-09-09T13:35:27;14.20;;;3.50;;
57199;SDS011;43061;43.902;22.266;2022-09-09T13:37:57;12.30;;;3.60;;
57199;SDS011;43061;43.902;22.266;2022-09-09T13:40:24;11.68;;;3.85;;
57199;SDS011;43061;43.902;22.266;2022-09-09T13:42:51;19.95;;;7.10;;
57199;SDS011;43061;43.902;22.266;2022-09-09T13:45:18;16.55;;;6.45;;
57199;SDS011;43061;43.902;22.266;2022-09-09T13:47:45;12.68;;;3.33;;
57199;SDS011;43061;43.902;22.266;2022-09-09T13:52:48;10.63;;;3.28;;
57199;SDS011;43061;43.902;22.266;2022-09-09T13:55:16;10.98;;;3.30;;
57199;SDS011;43061;43.902;22.266;2022-09-09T13:57:59;14.40;;;3.40;;
57199;SDS011;43061;43.902;22.266;2022-09-09T14:00:26;11.82;;;3.70;;
57199;SDS011;43061;43.902;22.266;2022-09-09T14:02:52;13.93;;;3.40;;
57199;SDS011;43061;43.902;22.266;2022-09-09T14:05:20;24.42;;;13.35;;
57199;SDS011;43061;43.902;22.266;2022-09-09T14:07:47;11.57;;;4.00;;
57199;SDS011;43061;43.902;22.266;2022-09-09T14:10:14;10.75;;;3.28;;
57199;SDS011;43061;43.902;22.266;2022-09-09T14:12:40;11.07;;;3.22;;
57199;SDS011;43061;43.902;22.266;2022-09-09T14:15:06;14.95;;;3.40;;
57199;SDS011;43061;43.902;22.266;2022-09-09T14:17:33;13.05;;;3.30;;
57199;SDS011;43061;43.902;22.266;2022-09-09T14:20:00;11.10;;;3.53;;
57199;SDS011;43061;43.902;22.266;2022-09-09T14:22:26;17.55;;;6.55;;
57199;SDS011;43061;43.902;22.266;2022-09-09T14:24:53;24.17;;;12.02;;
57199;SDS011;43061;43.902;22.266;2022-09-09T14:27:19;17.40;;;4.70;;
57199;SDS011;43061;43.902;22.266;2022-09-09T14:29:45;14.70;;;4.65;;
57199;SDS011;43061;43.902;22.266;2022-09-09T14:32:11;15.80;;;4.57;;
57199;SDS011;43061;43.902;22.266;2022-09-09T14:34:37;9.35;;;4.00;;
57199;SDS011;43061;43.902;22.266;2022-09-09T14:37:04;16.00;;;4.40;;
57199;SDS011;43061;43.902;22.266;2022-09-09T14:39:30;8.93;;;3.20;;
57199;SDS011;43061;43.902;22.266;2022-09-09T14:41:56;12.90;;;3.67;;
57199;SDS011;43061;43.902;22.266;2022-09-09T14:44:23;13.80;;;4.55;;
57199;SDS011;43061;43.902;22.266;2022-09-09T14:46:49;24.10;;;10.95;;
57199;SDS011;43061;43.902;22.266;2022-09-09T14:49:15;21.50;;;11.05;;
57199;SDS011;43061;43.902;22.266;2022-09-09T14:51:41;18.42;;;9.02;;
57199;SDS011;43061;43.902;22.266;2022-09-09T14:54:07;11.73;;;4.95;;
57199;SDS011;43061;43.902;22.266;2022-09-09T14:56:34;10.48;;;3.47;;
57199;SDS011;43061;43.902;22.266;2022-09-09T14:59:00;12.18;;;2.85;;
57199;SDS011;43061;43.902;22.266;2022-09-09T15:01:27;15.73;;;3.22;;
57199;SDS011;43061;43.902;22.266;2022-09-09T15:03:55;11.95;;;2.92;;
57199;SDS011;43061;43.902;22.266;2022-09-09T15:06:23;14.75;;;3.15;;
57199;SDS011;43061;43.902;22.266;2022-09-09T15:08:50;13.80;;;3.03;;
57199;SDS011;43061;43.902;22.266;2022-09-09T15:11:17;13.60;;;3.08;;
57199;SDS011;43061;43.902;22.266;2022-09-09T15:13:43;13.90;;;4.57;;
57199;SDS011;43061;43.902;22.266;2022-09-09T15:16:10;13.57;;;5.95;;
57199;SDS011;43061;43.902;22.266;2022-09-09T15:18:37;15.70;;;5.70;;
57199;SDS011;43061;43.902;22.266;2022-09-09T15:21:08;10.88;;;3.20;;
57199;SDS011;43061;43.902;22.266;2022-09-09T15:23:35;9.50;;;3.00;;
57199;SDS011;43061;43.902;22.266;2022-09-09T15:26:01;10.95;;;3.20;;
57199;SDS011;43061;43.902;22.266;2022-09-09T15:28:28;11.10;;;3.10;;
57199;SDS011;43061;43.902;22.266;2022-09-09T15:30:54;11.68;;;3.20;;
57199;SDS011;43061;43.902;22.266;2022-09-09T15:33:22;19.83;;;10.73;;
57199;SDS011;43061;43.902;22.266;2022-09-09T15:35:48;12.15;;;3.40;;
57199;SDS011;43061;43.902;22.266;2022-09-09T15:38:14;11.25;;;4.32;;
57199;SDS011;43061;43.902;22.266;2022-09-09T15:40:42;9.20;;;3.65;;
57199;SDS011;43061;43.902;22.266;2022-09-09T15:43:08;8.77;;;3.10;;
57199;SDS011;43061;43.902;22.266;2022-09-09T15:45:35;12.90;;;4.18;;
57199;SDS011;43061;43.902;22.266;2022-09-09T15:48:02;14.38;;;6.60;;
57199;SDS011;43061;43.902;22.266;2022-09-09T15:50:29;11.70;;;4.97;;
57199;SDS011;43061;43.902;22.266;2022-09-09T15:52:57;11.52;;;4.15;;
57199;SDS011;43061;43.902;22.266;2022-09-09T15:55:23;10.05;;;3.72;;
57199;SDS011;43061;43.902;22.266;2022-09-09T15:57:50;11.43;;;3.85;;
57199;SDS011;43061;43.902;22.266;2022-09-09T16:00:20;9.02;;;3.53;;
57199;SDS011;43061;43.902;22.266;2022-09-09T16:02:47;9.55;;;3.60;;
57199;SDS011;43061;43.902;22.266;2022-09-09T16:05:14;9.20;;;3.50;;
57199;SDS011;43061;43.902;22.266;2022-09-09T16:07:40;10.30;;;4.78;;
57199;SDS011;43061;43.902;22.266;2022-09-09T16:10:07;9.90;;;3.97;;
57199;SDS011;43061;43.902;22.266;2022-09-09T16:12:34;8.85;;;4.35;;
57199;SDS011;43061;43.902;22.266;2022-09-09T16:15:00;8.18;;;3.30;;
57199;SDS011;43061;43.902;22.266;2022-09-09T16:17:26;8.05;;;3.70;;
57199;SDS011;43061;43.902;22.266;2022-09-09T16:19:52;12.10;;;4.00;;
57199;SDS011;43061;43.902;22.266;2022-09-09T16:22:19;11.80;;;3.97;;
57199;SDS011;43061;43.902;22.266;2022-09-09T16:24:45;8.35;;;3.75;;
57199;SDS011;43061;43.902;22.266;2022-09-09T16:27:11;9.30;;;3.60;;
57199;SDS011;43061;43.902;22.266;2022-09-09T16:29:39;7.85;;;3.47;;
57199;SDS011;43061;43.902;22.266;2022-09-09T16:32:05;7.40;;;3.30;;